Hauptseite
METAR-TAF:

METAR-TAF

Flughäfen :

Humberside Airport

Humberside, England

Breite: 53-35N, Länge: 000-21W, Höhe: 31 m

Beobachtung

Neuester Wetterbericht von vor 24 Minuten, um 06:50 UTC
Windstille
Temperatur 9°C
Luftfeuchtigkeit 87%
Luftdruck 1024 hPa
Sichtweite: 7000 m

METAR: EGNJ 210650Z 00000KT 7000 NSC 09/07 Q1024

Zeit: 08:14 (07:14 UTC)

Prognose

Neuester Wetterbericht von vor 2 Stunden und 14 Minuten, um 05:00 UTC
Gültige Prognose vom 21 um 06 UTC bis 21 um 15 UTC
Wind 5 kt aus unterschiedlichen Richtungen
Sichtweite: 7000 m
Leicht bewölkt in der Höhe von 4000 ft
Wahrscheinlichkeit 30% :
Zeitweise
vom 21 um 06 UTC bis 21 um 08 UTC
Sichtweite: 0300 m
Nebel
Übergehend zu
vom 21 um 08 UTC bis 21 um 11 UTC
Sichtweite 10 km oder mehr
keine Wolken unter 1500 m und keine Kumulonimbus oder Gewitterwolken

TAF: EGNJ 210500Z 2106/2115 VRB05KT 7000 FEW040 PROB30 TEMPO 2106/2108 0300 FG VV/// BECMG 2108/2111 CAVOK

Wetterbeobachtungen und Prognosen von mehr als 4000 Flughäfen (METAR und TAF Bericht).

Die verfügbaren Stationen werden durch gelbe und rote Markierungen auf der Karte dargestellt.

Führen Sie die Maus auf sie, um den Namen der Station zu sehen.

Darauf klicken, um die Beobachtung von Wetterbeobachtungen und Prognosen zu sehen.

Um die Karte zu ändern : klicken Sie auf den grünen Tasten mit einem schwarzen Kreuz Zum Vergrößern, auf den grünen Button mit einem Gedankenstrich zu verkleinern, oder auf die grünen Pfeile für benachbarte Karten.


METAR-TAF: